^^
Bauneg Beg-Weather Station Historical Data
 
Daily Summary for November 15, 2019 Units:  English    Metric   Both
Daily Weekly Monthly Yearly Custom
  Current: High: Low: Average:
Temperature: 44.8 °F 46.9 °F 28.9 °F 36.2 °F
Dew Point: 25.7 °F 27.7 °F 23.5 °F 25.3 °F
Humidity: 47% 83% 42% 67%
Wind Speed: 0mph 8.9mph 0mph 1.9mph
Wind Gust: 0mph 12.5mph - -
WindCalm - - SSW
Pressure: 29.73 in 29.96 in 29.73 in -
Precipitation: 0 in      
Historical Graphs
 
 
Tabular Data for November 15, 2019
Time Temperature Dew Point Pressure Wind Wind Speed Wind Gust Humidity Rainfall Rate (Hourly) solar
00:00 32.2 °F 27.3 °F 29.96 in SW 1.1 mph 1.1 mph 82% 0 in 0.00 W/m2
00:05 32.4 °F 27.5 °F 29.95 in Calm     82% 0 in 0.00 W/m2
00:10 32.2 °F 27.3 °F 29.96 in Calm     82% 0 in 0.00 W/m2
00:15 32.2 °F 27.5 °F 29.95 in South 1.3 mph 2.2 mph 83% 0 in 0.00 W/m2
00:20 32.2 °F 27.5 °F 29.94 in West 1.3 mph 2.2 mph 83% 0 in 0.00 W/m2
00:25 32.4 °F 27.5 °F 29.95 in Calm     82% 0 in 0.00 W/m2
00:30 32.4 °F 27.5 °F 29.94 in SW 0.2 mph 1.1 mph 82% 0 in 0.00 W/m2
00:35 32.4 °F 27.5 °F 29.93 in SSW 0.4 mph 1.1 mph 82% 0 in 0.00 W/m2
00:40 32.4 °F 27.5 °F 29.94 in North 1.1 mph 2.2 mph 82% 0 in 0.00 W/m2
00:45 32.4 °F 27.5 °F 29.93 in Calm     82% 0 in 0.00 W/m2
00:50 32.5 °F 27.3 °F 29.93 in SW 1.1 mph 1.1 mph 81% 0 in 0.00 W/m2
00:55 32.5 °F 27.3 °F 29.93 in South 1.3 mph 2.2 mph 81% 0 in 0.00 W/m2
01:00 32.5 °F 27.7 °F 29.93 in East 1.3 mph 2.2 mph 82% 0 in 0.00 W/m2
01:05 32.4 °F 27.5 °F 29.93 in SSE 1.1 mph 1.1 mph 82% 0 in 0.00 W/m2
01:10 32.2 °F 27.3 °F 29.92 in Calm     82% 0 in 0.00 W/m2
01:15 32 °F 27.1 °F 29.93 in Calm     82% 0 in 0.00 W/m2
01:20 32 °F 27.1 °F 29.93 in SW 0.7 mph 1.1 mph 82% 0 in 0.00 W/m2
01:25 32.2 °F 27 °F 29.92 in SSW 0.9 mph 1.1 mph 81% 0 in 0.00 W/m2
01:30 32.4 °F 27 °F 29.92 in SW 0.9 mph 1.1 mph 80% 0 in 0.00 W/m2
01:35 32.5 °F 26.8 °F 29.92 in South 1.3 mph 2.2 mph 79% 0 in 0.00 W/m2
01:40 32.7 °F 27 °F 29.92 in SSW 0.7 mph 1.1 mph 79% 0 in 0.00 W/m2
01:45 32.9 °F 27.1 °F 29.92 in South 1.1 mph 2.2 mph 79% 0 in 0.00 W/m2
01:50 32.7 °F 27 °F 29.92 in Calm     79% 0 in 0.00 W/m2
01:55 32.7 °F 27 °F 29.92 in SW 0.2 mph 1.1 mph 79% 0 in 0.00 W/m2
02:00 32.5 °F 26.8 °F 29.91 in SSW 0.4 mph 1.1 mph 79% 0 in 0.00 W/m2
02:05 32.7 °F 27 °F 29.92 in Calm     79% 0 in 0.00 W/m2
02:10 32.7 °F 27 °F 29.91 in WSW 0.9 mph 1.1 mph 79% 0 in 0.00 W/m2
02:15 32.5 °F 26.4 °F 29.91 in Calm     78% 0 in 0.00 W/m2
02:20 32.5 °F 26.8 °F 29.91 in SSE 0.9 mph 1.1 mph 79% 0 in 0.00 W/m2
02:25 32.4 °F 26.6 °F 29.91 in South 2.2 mph 3.4 mph 79% 0 in 0.00 W/m2
02:30 32.4 °F 26.6 °F 29.91 in Calm     79% 0 in 0.00 W/m2
02:35 32.2 °F 26.4 °F 29.90 in South 2.7 mph 3.4 mph 79% 0 in 0.00 W/m2
02:40 32 °F 26.2 °F 29.90 in Calm     79% 0 in 0.00 W/m2
02:45 31.6 °F 26.2 °F 29.90 in SSE 1.6 mph 2.2 mph 80% 0 in 0.00 W/m2
02:50 31.5 °F 26.1 °F 29.90 in South 0.9 mph 1.1 mph 80% 0 in 0.00 W/m2
02:55 31.3 °F 25.9 °F 29.90 in South 1.1 mph 1.1 mph 80% 0 in 0.00 W/m2
03:00 31.1 °F 25.9 °F 29.90 in SSW 0.2 mph 1.1 mph 81% 0 in 0.00 W/m2
03:05 30.9 °F 25.7 °F 29.90 in South 0.2 mph 1.1 mph 81% 0 in 0.00 W/m2
03:10 30.4 °F 25.5 °F 29.90 in South 0.9 mph 1.1 mph 82% 0 in 0.00 W/m2
03:15 30 °F 25 °F 29.89 in SSE 1.8 mph 2.2 mph 81% 0 in 0.00 W/m2
03:20 30.6 °F 25.2 °F 29.89 in SW 0.2 mph 1.1 mph 80% 0 in 0.00 W/m2
03:25 30.7 °F 25.5 °F 29.89 in SSE 0.9 mph 1.1 mph 81% 0 in 0.00 W/m2
03:30 30.7 °F 25.5 °F 29.88 in SSW 0.4 mph 1.1 mph 81% 0 in 0.00 W/m2
03:35 30.7 °F 25.9 °F 29.89 in SSE 2 mph 2.2 mph 82% 0 in 0.00 W/m2
03:40 30.6 °F 25.7 °F 29.89 in South 1.1 mph 1.1 mph 82% 0 in 0.00 W/m2
03:45 30.6 °F 25.7 °F 29.89 in SE 1.8 mph 2.2 mph 82% 0 in 0.00 W/m2
03:50 30.6 °F 25.7 °F 29.89 in SSW 0.9 mph 1.1 mph 82% 0 in 0.00 W/m2
03:55 30.6 °F 25.7 °F 29.89 in SSW 1.3 mph 2.2 mph 82% 0 in 0.00 W/m2
04:00 30.4 °F 25.5 °F 29.89 in South 1.8 mph 2.2 mph 82% 0 in 0.00 W/m2
04:05 30.4 °F 25.5 °F 29.89 in South 1.3 mph 2.2 mph 82% 0 in 0.00 W/m2
04:10 30.4 °F 25.3 °F 29.89 in SSW 2.5 mph 3.4 mph 81% 0 in 0.00 W/m2
04:15 30.2 °F 25.2 °F 29.89 in SSW 1.8 mph 2.2 mph 81% 0 in 0.00 W/m2
04:20 30.2 °F 25.2 °F 29.89 in SSW 1.1 mph 2.2 mph 81% 0 in 0.00 W/m2
04:25 30.2 °F 25.2 °F 29.88 in South 0.2 mph 1.1 mph 81% 0 in 0.00 W/m2
04:30 30 °F 25.2 °F 29.88 in SSE 1.6 mph 3.4 mph 82% 0 in 0.00 W/m2
04:35 30 °F 25 °F 29.89 in East 0.9 mph 2.2 mph 81% 0 in 0.00 W/m2
04:40 30 °F 25 °F 29.89 in WSW 0.9 mph 1.1 mph 81% 0 in 0.00 W/m2
04:45 30 °F 25 °F 29.88 in SE 1.8 mph 3.4 mph 81% 0 in 0.00 W/m2
04:50 30.2 °F 24.8 °F 29.88 in Calm     80% 0 in 0.00 W/m2
04:55 30 °F 25 °F 29.88 in WNW 2.5 mph 3.4 mph 81% 0 in 0.00 W/m2
05:00 29.8 °F 25 °F 29.88 in South 0.9 mph 1.1 mph 82% 0 in 0.00 W/m2
05:05 29.7 °F 24.8 °F 29.88 in SSE 1.6 mph 2.2 mph 82% 0 in 0.00 W/m2
05:10 29.7 °F 24.8 °F 29.87 in West 1.3 mph 2.2 mph 82% 0 in 0.00 W/m2
05:15 29.7 °F 24.3 °F 29.89 in South 2.9 mph 4.5 mph 80% 0 in 0.00 W/m2
05:20 30 °F 24.6 °F 29.88 in South 3.1 mph 3.4 mph 80% 0 in 0.00 W/m2
05:25 29.7 °F 24.6 °F 29.87 in SE 2.7 mph 3.4 mph 81% 0 in 0.00 W/m2
05:30 29.3 °F 24.3 °F 29.86 in SSE 3.8 mph 4.5 mph 81% 0 in 0.00 W/m2
05:35 29.5 °F 24.4 °F 29.87 in SSW 2.5 mph 5.8 mph 81% 0 in 0.00 W/m2
05:40 29.7 °F 24.6 °F 29.87 in South 0.9 mph 1.1 mph 81% 0 in 0.00 W/m2
05:45 29.7 °F 24.3 °F 29.87 in South 1.3 mph 2.2 mph 80% 0 in 0.00 W/m2
05:50 29.8 °F 24.1 °F 29.87 in Calm     79% 0 in 0.00 W/m2
05:55 29.8 °F 24.4 °F 29.87 in South 1.3 mph 2.2 mph 80% 0 in 0.00 W/m2
06:00 29.8 °F 24.4 °F 29.87 in SSE 1.3 mph 2.2 mph 80% 0 in 0.00 W/m2
06:05 29.7 °F 24.3 °F 29.87 in South 1.8 mph 2.2 mph 80% 0 in 0.00 W/m2
06:10 29.5 °F 24.1 °F 29.88 in South 0.2 mph 1.1 mph 80% 0 in 0.00 W/m2
06:15 29.5 °F 24.1 °F 29.87 in South 1.6 mph 2.2 mph 80% 0 in 0.00 W/m2
06:20 29.5 °F 24.1 °F 29.87 in WSW 1.8 mph 2.2 mph 80% 0 in 0.00 W/m2
06:25 29.5 °F 24.1 °F 29.87 in SSW 0.2 mph 1.1 mph 80% 0 in 0.00 W/m2
06:30 29.3 °F 23.9 °F 29.87 in South 1.6 mph 2.2 mph 80% 0 in 0.36 W/m2
06:35 29.1 °F 24.1 °F 29.87 in SSW 1.1 mph 2.2 mph 81% 0 in 2.57 W/m2
06:40 28.9 °F 23.9 °F 29.86 in SSW 3.8 mph 4.5 mph 81% 0 in 4.77 W/m2
06:45 28.9 °F 23.5 °F 29.87 in WSW 2.2 mph 3.4 mph 80% 0 in 6.85 W/m2
06:50 29.1 °F 23.7 °F 29.87 in SW 0.7 mph 1.1 mph 80% 0 in 9.54 W/m2
06:55 29.1 °F 23.7 °F 29.87 in SSW 1.1 mph 2.2 mph 80% 0 in 12.97 W/m2
07:00 29.1 °F 23.7 °F 29.87 in SSW 1.3 mph 2.2 mph 80% 0 in 16.02 W/m2
07:05 29.1 °F 23.7 °F 29.87 in SSE 2.2 mph 3.4 mph 80% 0 in 19.94 W/m2
07:10 29.1 °F 23.7 °F 29.87 in NE 2.2 mph 2.2 mph 80% 0 in 22.87 W/m2
07:15 29.1 °F 23.7 °F 29.86 in SSE 1.6 mph 2.2 mph 80% 0 in 25.94 W/m2
07:20 29.3 °F 23.5 °F 29.86 in SSE 3.8 mph 4.5 mph 79% 0 in 29.85 W/m2
07:25 29.5 °F 23.7 °F 29.86 in NE 1.3 mph 2.2 mph 79% 0 in 32.42 W/m2
07:30 29.7 °F 23.5 °F 29.85 in North 1.1 mph 2.2 mph 78% 0 in 34.62 W/m2
07:35 30.2 °F 23.5 °F 29.86 in WSW 1.1 mph 2.2 mph 76% 0 in 37.19 W/m2
07:40 30.9 °F 23.9 °F 29.85 in South 0.9 mph 3.4 mph 75% 0 in 39.02 W/m2
07:45 31.1 °F 24.1 °F 29.85 in SSW 4 mph 5.8 mph 75% 0 in 41.59 W/m2
07:50 31.1 °F 24.1 °F 29.85 in SSW 1.1 mph 3.4 mph 75% 0 in 44.16 W/m2
07:55 31.5 °F 24.1 °F 29.85 in SSE 2.2 mph 2.2 mph 74% 0 in 62.02 W/m2
08:00 32.2 °F 24.4 °F 29.85 in SSE 2.2 mph 3.4 mph 73% 0 in 93.58 W/m2
08:05 32.4 °F 24.6 °F 29.84 in SSE 1.6 mph 2.2 mph 73% 0 in 103.61 W/m2
08:10 32.4 °F 24.3 °F 29.85 in SSE 1.3 mph 2.2 mph 72% 0 in 108.88 W/m2
08:15 32.7 °F 24.6 °F 29.84 in South 2.5 mph 3.4 mph 72% 0 in 122.70 W/m2
08:20 32.5 °F 24.4 °F 29.84 in SW 2.2 mph 3.4 mph 72% 0 in 133.10 W/m2
08:25 32.9 °F 24.4 °F 29.85 in SSW 1.8 mph 3.4 mph 71% 0 in 144.85 W/m2
08:30 33.4 °F 24.6 °F 29.84 in SSE 2.9 mph 3.4 mph 70% 0 in 155.73 W/m2
08:35 33.8 °F 24.6 °F 29.83 in South 3.4 mph 8.1 mph 69% 0 in 167.36 W/m2
08:40 34 °F 24.8 °F 29.84 in SW 3.8 mph 6.9 mph 69% 0 in 177.39 W/m2
08:45 33.8 °F 24.4 °F 29.83 in South 3.1 mph 4.5 mph 68% 0 in 185.58 W/m2
08:50 34 °F 24.4 °F 29.83 in SW 4.3 mph 5.8 mph 68% 0 in 194.76 W/m2
08:55 34.3 °F 24.4 °F 29.84 in South 5.8 mph 8.1 mph 67% 0 in 205.15 W/m2
09:00 34.9 °F 25 °F 29.84 in SSW 0.2 mph 1.1 mph 67% 0 in 217.27 W/m2
09:05 35.6 °F 25 °F 29.83 in South 1.3 mph 2.2 mph 65% 0 in 222.04 W/m2
09:10 35.8 °F 25.5 °F 29.83 in WSW 3.4 mph 4.5 mph 66% 0 in 236.35 W/m2
09:15 36.5 °F 25.5 °F 29.81 in WSW 2.5 mph 4.5 mph 64% 0 in 242.47 W/m2
09:20 36.7 °F 25.2 °F 29.82 in SSW 2.5 mph 3.4 mph 63% 0 in 246.75 W/m2
09:25 37 °F 25.5 °F 29.83 in SW 2 mph 3.4 mph 63% 0 in 255.44 W/m2
09:30 37 °F 25.2 °F 29.82 in South 5.8 mph 8.1 mph 62% 0 in 265.47 W/m2
09:35 37.6 °F 25.3 °F 29.82 in South 2 mph 2.2 mph 61% 0 in 270.24 W/m2
09:40 38.5 °F 25.3 °F 29.82 in SSE 3.8 mph 5.8 mph 59% 0 in 277.09 W/m2
09:45 38.8 °F 25.7 °F 29.82 in South 1.6 mph 2.2 mph 59% 0 in 282.35 W/m2
09:50 38.8 °F 25.3 °F 29.81 in ENE 2.5 mph 4.5 mph 58% 0 in 95.79 W/m2
09:55 38.5 °F 25 °F 29.82 in SW 3.8 mph 5.8 mph 58% 0 in 297.52 W/m2
10:00 38.5 °F 25 °F 29.81 in West 3.1 mph 4.5 mph 58% 0 in 304.00 W/m2
10:05 39.2 °F 25.2 °F 29.82 in West 1.1 mph 1.1 mph 57% 0 in 308.78 W/m2
10:10 39.7 °F 25.3 °F 29.81 in South 2.2 mph 5.8 mph 56% 0 in 305.84 W/m2
10:15 40.1 °F 25.2 °F 29.82 in NNE 2.2 mph 4.5 mph 55% 0 in 313.54 W/m2
10:20 40.6 °F 25.3 °F 29.81 in South 3.4 mph 4.5 mph 54% 0 in 327.00 W/m2
10:25 41 °F 25.2 °F 29.80 in SW 2.2 mph 2.2 mph 53% 0 in 329.69 W/m2
10:30 41.4 °F 25 °F 29.80 in SSE 3.4 mph 5.8 mph 52% 0 in 330.55 W/m2
10:35 41.9 °F 25.2 °F 29.81 in SW 2 mph 3.4 mph 51% 0 in 331.40 W/m2
10:40 42.3 °F 25.5 °F 29.80 in West 1.3 mph 2.2 mph 51% 0 in 340.46 W/m2
10:45 43 °F 25.5 °F 29.80 in NW 6.5 mph 10.3 mph 50% 0 in 336.18 W/m2
10:50 42.4 °F 24.6 °F 29.80 in South 8.9 mph 12.5 mph 49% 0 in 340.09 W/m2
10:55 42.6 °F 25.3 °F 29.79 in WSW 1.8 mph 3.4 mph 50% 0 in 341.81 W/m2
11:00 42.8 °F 25 °F 29.80 in SSW 2 mph 3.4 mph 49% 0 in 343.03 W/m2
11:05 43 °F 24.6 °F 29.79 in WSW 1.6 mph 3.4 mph 48% 0 in 349.15 W/m2
11:10 42.6 °F 24.8 °F 29.78 in NW 5.4 mph 9.2 mph 49% 0 in 351.71 W/m2
11:15 42.4 °F 24.6 °F 29.79 in West 2.9 mph 4.5 mph 49% 0 in 349.64 W/m2
11:20 42.8 °F 24.4 °F 29.78 in WNW 3.4 mph 4.5 mph 48% 0 in 344.01 W/m2
11:25 43.2 °F 24.8 °F 29.78 in NE 1.8 mph 2.2 mph 48% 0 in 342.66 W/m2
11:30 43 °F 25.2 °F 29.78 in South 4.5 mph 5.8 mph 49% 0 in 344.01 W/m2
11:35 42.8 °F 24.4 °F 29.78 in WSW 3.4 mph 4.5 mph 48% 0 in 340.46 W/m2
11:40 43.5 °F 25.7 °F 29.78 in SW 2.2 mph 3.4 mph 49% 0 in 336.18 W/m2
11:45 43.3 °F 24.4 °F 29.79 in NE 3.6 mph 5.8 mph 47% 0 in 337.03 W/m2
11:50 43.7 °F 24.3 °F 29.78 in NNW 1.3 mph 2.2 mph 46% 0 in 337.40 W/m2
11:55 43.7 °F 24.3 °F 29.78 in NNW 0.9 mph 2.2 mph 46% 0 in 336.18 W/m2
12:00 43.7 °F 24.8 °F 29.78 in SSE 2.9 mph 3.4 mph 47% 0 in 333.98 W/m2
12:05 44.2 °F 24.8 °F 29.78 in SW 1.6 mph 2.2 mph 46% 0 in 328.35 W/m2
12:10 44.2 °F 24.8 °F 29.78 in SW 1.6 mph 2.2 mph 46% 0 in 324.44 W/m2
12:15 45 °F 25 °F 29.77 in WSW 2.9 mph 4.5 mph 45% 0 in 317.10 W/m2
12:20 44.8 °F 25.3 °F 29.76 in SSW 0.7 mph 1.1 mph 46% 0 in 308.41 W/m2
12:25 44.2 °F 24.8 °F 29.77 in ESE 4.9 mph 5.8 mph 46% 0 in 306.20 W/m2
12:30 44.2 °F 24.8 °F 29.76 in SSW 2.2 mph 3.4 mph 46% 0 in 307.92 W/m2
12:35 44.4 °F 25 °F 29.76 in SW 4 mph 5.8 mph 46% 0 in 304.49 W/m2
12:40 44.1 °F 25.2 °F 29.75 in South 1.8 mph 2.2 mph 47% 0 in 301.44 W/m2
12:45 44.2 °F 24.8 °F 29.75 in SE 4.7 mph 6.9 mph 46% 0 in 294.46 W/m2
12:50 44.8 °F 24.3 °F 29.75 in SSW 0.9 mph 1.1 mph 44% 0 in 287.98 W/m2
12:55 45 °F 25 °F 29.75 in SW 1.1 mph 2.2 mph 45% 0 in 285.41 W/m2
13:00 45.1 °F 23.9 °F 29.74 in ENE 2.5 mph 3.4 mph 43% 0 in 276.72 W/m2
13:05 46 °F 24.8 °F 29.74 in South 7.8 mph 10.3 mph 43% 0 in 268.90 W/m2
13:10 45.7 °F 25 °F 29.75 in SE 3.4 mph 4.5 mph 44% 0 in 262.78 W/m2
13:15 45.7 °F 25 °F 29.73 in West 4.9 mph 6.9 mph 44% 0 in 258.00 W/m2
13:20 46 °F 25.3 °F 29.73 in South 4.9 mph 5.8 mph 44% 0 in 248.10 W/m2
13:25 45.5 °F 24.8 °F 29.73 in WSW 2.5 mph 3.4 mph 44% 0 in 230.24 W/m2
13:30 46 °F 24.8 °F 29.73 in SW 2.5 mph 3.4 mph 43% 0 in 227.66 W/m2
13:35 46.4 °F 25.2 °F 29.73 in South 1.3 mph 2.2 mph 43% 0 in 207.36 W/m2
13:40 46.6 °F 25.3 °F 29.74 in North 2.9 mph 3.4 mph 43% 0 in 196.84 W/m2
13:45 46.8 °F 25 °F 29.73 in SSE 1.1 mph 1.1 mph 42% 0 in 190.36 W/m2
13:50 46.6 °F 25.3 °F 29.73 in NNE 2.9 mph 3.4 mph 43% 0 in 142.27 W/m2
13:55 46.2 °F 25 °F 29.73 in South 2.5 mph 5.8 mph 43% 0 in 113.65 W/m2
14:00 46.2 °F 25 °F 29.73 in SW 2 mph 2.2 mph 43% 0 in 104.10 W/m2
14:05 46.2 °F 25 °F 29.73 in South 4.9 mph 8.1 mph 43% 0 in 100.19 W/m2
14:10 46.4 °F 25.2 °F 29.73 in SSW 0.9 mph 1.1 mph 43% 0 in 89.79 W/m2
14:15 46.6 °F 25.3 °F 29.73 in SW 0.2 mph 1.1 mph 43% 0 in 99.70 W/m2
14:20 46.9 °F 25.7 °F 29.73 in SW 1.3 mph 2.2 mph 43% 0 in 97.13 W/m2
14:25 46.8 °F 25.5 °F 29.74 in SE 2.2 mph 5.8 mph 43% 0 in 87.10 W/m2
14:30 46.6 °F 25.9 °F 29.73 in WSW 4.9 mph 9.2 mph 44% 0 in 68.51 W/m2
14:35 46.2 °F 25.5 °F 29.73 in WSW 2.9 mph 3.4 mph 44% 0 in 78.05 W/m2
14:40 46.2 °F 25.5 °F 29.73 in SSE 3.4 mph 4.5 mph 44% 0 in 46.73 W/m2
14:45 46.2 °F 26.1 °F 29.74 in SSW 0.4 mph 1.1 mph 45% 0 in 45.02 W/m2
14:50 45.9 °F 25.7 °F 29.73 in South 3.4 mph 4.5 mph 45% 0 in 43.31 W/m2
14:55 45.7 °F 26.1 °F 29.73 in SSE 2.5 mph 3.4 mph 46% 0 in 42.94 W/m2
15:00 45.5 °F 25.9 °F 29.73 in NW 0.7 mph 1.1 mph 46% 0 in 41.10 W/m2
15:05 45.5 °F 26.4 °F 29.73 in SW 2.9 mph 4.5 mph 47% 0 in 39.39 W/m2
15:10 45.3 °F 26.2 °F 29.73 in SW 1.3 mph 2.2 mph 47% 0 in 36.82 W/m2
15:15 45.1 °F 26.1 °F 29.73 in South 0.9 mph 1.1 mph 47% 0 in 35.11 W/m2
15:20 45 °F 25.9 °F 29.73 in South 0.9 mph 1.1 mph 47% 0 in 32.90 W/m2
15:25 44.8 °F 25.7 °F 29.73 in Calm     47% 0 in 30.70 W/m2
MaineWeather, Bauneg Beg
Compliments of Weather Underground - 4.5 mb